Montreal / St-Lazare Airport

CST3 · Quebec, Canada

METAR anciennes CST3 · Montreal / St-Lazare Airport

Tu vois ci-dessous les METAR des derniers jours. Sélectionne une année pour parcourir les METAR plus anciens, à partir de l'année 2007.

27 février 2024

Temps Code Temps Temp. Vue Base cloud Vent METAR/SPECI
07:00
V
0 °C 15 mi - 010° 010° 6 kt METAR CYUL 271200Z 01006KT 15SM FEW130 SCT150 SCT250 M00/M04 A2986 RMK AC1AC2CI1 SLP114
06:20
V
-1 °C 15 mi - 080° 080° 3 kt METAR CYUL 271120Z 08003KT 050V110 15SM FEW160 FEW250 M01/M06 A2986 WS RWY06R RMK AC1CI1 CI TR SLP114
06:00
V
-1 °C 15 mi - 100° 100° 4 kt METAR CYUL 271100Z 10004KT 080V150 15SM FEW160 FEW250 M01/M06 A2986 RMK AC1CI1 CI TR SLP116
05:00
V
-1 °C 15 mi - 100° 100° 7 kt METAR CYUL 271000Z 10007KT 15SM FEW160 FEW250 M01/M07 A2989 RMK AC1CI1 CI TR SLP124
04:00
V
0 °C 15 mi - 080° 080° 5 kt METAR CYUL 270900Z 08005KT 15SM FEW140 FEW250 M00/M07 A2991 RMK AC1CI1 AC TR CI TR SLP133
03:00
V
-1 °C 15 mi - 050° 050° 7 kt METAR CYUL 270800Z 05007KT 15SM FEW140 FEW250 M01/M06 A2994 RMK AC1CI1 AC TR CI TR SLP141
02:00
V
0 °C 15 mi - 100° 100° 5 kt METAR CYUL 270700Z 10005KT 15SM FEW120 FEW250 M00/M06 A2996 RMK AC1CI1 AC TR SLP148
01:00
V
0 °C 15 mi 25.000 ft 090° 090° 3 kt METAR CYUL 270600Z 09003KT 15SM SCT140 BKN250 M00/M06 A2997 RMK AC3CI2 SLP154
00:00
V
0 °C 15 mi 14.000 ft 080° 080° 5 kt METAR CYUL 270500Z 08005KT 15SM BKN140 BKN240 M00/M05 A2998 RMK AC5CI1 SLP157

26 février 2024

Temps Code Temps Temp. Vue Base cloud Vent METAR/SPECI
23:00
V
0 °C 15 mi 18.000 ft 130° 130° 4 kt METAR CYUL 270400Z 13004KT 15SM SCT130 BKN180 BKN250 00/M06 A3000 RMK AC4AC1CI1 SLP161
22:00
V
0 °C 15 mi 12.000 ft 070° 070° 5 kt METAR CYUL 270300Z 07005KT 15SM BKN120 BKN220 00/M06 A2999 RMK AC5CI1 SLP160
21:00
V
1 °C 15 mi - 120° 120° 4 kt METAR CYUL 270200Z 12004KT 15SM FEW220 01/M05 A3002 RMK CI2 SLP169
20:00
V
0 °C 15 mi - 360° 360° 0 kt METAR CYUL 270100Z 00000KT 15SM SCT230 00/M06 A3002 RMK CI4 SLP169
19:00
V
1 °C 15 mi - 230° 230° 6 kt METAR CYUL 270000Z 23006KT 15SM SCT250 01/M07 A3002 RMK CI3 SLP170
18:00
V
2 °C 15 mi - 250° 250° 6 kt METAR CYUL 262300Z 25006KT 15SM FEW250 02/M06 A3000 RMK CI2 SLP163
17:00
V
4 °C 15 mi - 270° 270° 10 kt METAR CYUL 262200Z 27010KT 15SM FEW035 FEW250 04/M08 A2997 RMK CF1CI2 CF TR SLP153
16:00
V
5 °C 15 mi - 250° 250° 14 kt METAR CYUL 262100Z 25014KT 15SM FEW030 FEW250 05/M07 A2995 RMK CF1CI1 CF TR CI TR SLP147
15:00
V
5 °C 15 mi - 260° 260° 15 - 21 kt METAR CYUL 262000Z 26015G21KT 15SM FEW030 FEW080 FEW250 05/M06 A2993 RMK CU1AC1CI1 AC TR CI TR SLP138
14:00
V
5 °C 15 mi - 250° 250° 17 - 23 kt METAR CYUL 261900Z 25017G23KT 15SM FEW025 FEW040 FEW250 05/M05 A2992 RMK CF1CU1CI1 CF TR SLP134
13:00
V
4 °C 15 mi - 250° 250° 18 kt METAR CYUL 261800Z 25018KT 15SM FEW035 SCT080 SCT250 04/M04 A2990 RMK CU2AC1CI1 AC TR CI TR SLP128
12:00
V
3 °C 15 mi - 260° 260° 13 kt METAR CYUL 261700Z 26013KT 15SM FEW015 SCT025 SCT080 SCT250 03/M01 A2989 RMK CF1CU3AC1CI1 CF TR CI TR SLP124
11:00
V
3 °C 15 mi 8.000 ft 220° 220° 12 kt METAR CYUL 261600Z 22012KT 15SM SCT014 SCT020 SCT040 BKN080 BKN250 03/01 A2987 RMK SF3SF1SC1AC1CI1 SF TR CI TR SLP120
10:33
V
2 °C 15 mi 9.000 ft 240° 240° 11 kt METAR CYUL 261533Z 24011KT 15SM SCT010 SCT040 BKN090 BKN250 02/01 A2987 RMK SF3SC2AC2CI1 CI TR SLP120
10:00
I
1 °C 10 mi 800 ft 220° 220° 9 kt METAR CYUL 261500Z 22009KT 10SM BKN008 BKN040 BKN100 01/00 A2987 RMK SF6SC1AC1 SLP119
09:31
I
1 °C 6 mi 700 ft 220° 220° 9 kt METAR CYUL 261431Z 22009KT 6SM BR BKN007 OVC040 01/M00 A2987 RMK SF6SC2 SLP118
09:11
V
1 °C 6 mi 7.800 ft 210° 210° 10 kt METAR CYUL 261411Z 21010KT 6SM -SN FEW004 SCT036 OVC078 01/M01 A2986 RMK SF2SC4AC2 SLP116
09:00
L
1 °C 4 mi 400 ft 200° 200° 10 kt METAR CYUL 261400Z 20010KT 4SM -SN BKN004 OVC035 01/M01 A2986 RMK SF6SC2 /S01/ SLP114
08:51
I
1 °C 2½ mi 600 ft 210° 210° 7 kt METAR CYUL 261351Z 21007KT 2 1/2SM R24R/5500VP6000FT/U R24L/5000VP6000FT/U -SN BKN006 BKN038 01/M01 A2986 RMK ST5SC2 SLP114
08:29
L
1 °C ⅝ mi 400 ft 250° 250° 7 kt METAR CYUL 261329Z 25007KT 5/8SM R24R/5500VP6000FT/U R24L/6000FT/N -SN VV004 01/M01 A2986 RMK SN8 SLP116
08:23
L
1 °C ¾ mi 1.300 ft 270° 270° 4 kt METAR CYUL 261323Z 27004KT 230V300 3/4SM R24R/5500VP6000FT/D R24L/P6000FT/D -SN VV013 01/M01 A2986 RMK SN8 SLP117
08:16
L
1 °C ¾ mi 1.200 ft 280° 280° 3 kt METAR CYUL 261316Z 28003KT 3/4SM R24R/P6000FT/D R24L/P6000FT/N -SN VV012 01/M02 A2986 RMK SN8 PRESRR SLP116
08:06
I
1 °C 2½ mi 3.800 ft 290° 290° 3 kt METAR CYUL 261306Z 29003KT 2 1/2SM -SN OVC038 01/M02 A2985 RMK SC8 VIS SE 15 PRESRR SLP113
07:00
V
1 °C 15 mi 7.700 ft 160° 160° 4 kt METAR CYUL 261200Z 16004KT 15SM FEW040 BKN077 BKN120 01/M02 A2981 RMK SC1AC4AC3 SC TR SLP099
06:40
V
1 °C 15 mi - 190° 190° 5 kt METAR CYUL 261140Z 19005KT 15SM FEW030 SCT120 SCT250 01/M02 A2980 RMK SC2AC1CI1 CI TR SLP095
06:00
M
1 °C 10 mi 2.800 ft 260° 260° 5 kt METAR CYUL 261100Z 26005KT 240V310 10SM -SN BKN028 OVC050 01/M03 A2981 RMK SC6SC2 SLP098
05:32
V
2 °C 15 mi 4.000 ft 260° 260° 9 kt METAR CYUL 261032Z 26009KT 220V280 15SM -SN OVC040 02/M05 A2981 RMK SC8 SLP099
05:00
V
1 °C 15 mi 4.500 ft Var Var 2 kt METAR CYUL 261000Z VRB02KT 15SM OVC045 01/M04 A2980 RMK SC8 SLP095
04:20
V
2 °C 15 mi 4.600 ft 140° 140° 8 kt METAR CYUL 260920Z 14008KT 140V200 15SM OVC046 02/M05 A2978 RMK SC8 SLP090
04:00
V
3 °C 15 mi 4.800 ft 200° 200° 8 kt METAR CYUL 260900Z 20008KT 15SM OVC048 03/M05 A2978 RMK SC8 SLP089
03:00
V
1 °C 15 mi 4.800 ft 170° 170° 5 kt METAR CYUL 260800Z 17005KT 15SM OVC048 01/M05 A2978 RMK SC8 SLP088
02:00
V
1 °C 15 mi 5.500 ft 170° 170° 11 kt METAR CYUL 260700Z 17011KT 15SM OVC055 01/M05 A2981 RMK SC8 SLP097
01:00
V
0 °C 15 mi 7.500 ft 130° 130° 7 kt METAR CYUL 260600Z 13007KT 15SM OVC075 00/M05 A2981 RMK AS8 SLP097
00:00
V
1 °C 15 mi 7.200 ft 120° 120° 7 kt METAR CYUL 260500Z 12007KT 15SM OVC072 01/M05 A2980 RMK AS8 AC ASOCTD SLP096

25 février 2024

Temps Code Temps Temp. Vue Base cloud Vent METAR/SPECI
23:47
V
1 °C 15 mi 7.200 ft 120° 120° 5 kt METAR CYUL 260447Z 12005KT 15SM OVC072 01/M05 A2981 RMK AS8 SLP098
23:00
V
1 °C 15 mi 4.000 ft 210° 210° 5 kt METAR CYUL 260400Z 21005KT 15SM -SN FEW030 OVC040 01/M06 A2985 RMK SC1SC8 SC TR SLP111
22:34
M
0 °C 10 mi 3.000 ft 270° 270° 3 kt METAR CYUL 260334Z 27003KT 10SM -SN OVC030 00/M07 A2986 RMK SC8 SLP116
22:00
V
0 °C 15 mi 7.000 ft 160° 160° 11 kt METAR CYUL 260300Z 16011KT 15SM OVC070 00/M08 A2984 RMK AC8 PRESRR SLP107
21:00
V
0 °C 15 mi 10.000 ft 140° 140° 9 kt METAR CYUL 260200Z 14009KT 15SM BKN100 BKN250 M00/M07 A2982 RMK AC7CI1 CI TR SLP103
20:00
V
0 °C 15 mi 12.000 ft 140° 140° 9 kt METAR CYUL 260100Z 14009KT 15SM SCT060 BKN120 BKN180 BKN250 M00/M07 A2983 RMK SC4AC1AC1CI1 AC TR CI TR SLP106
19:00
V
0 °C 15 mi 25.000 ft 150° 150° 8 kt METAR CYUL 260000Z 15008KT 15SM SCT120 BKN250 00/M08 A2985 RMK AC3CI2 SLP111
18:00
V
0 °C 15 mi 11.000 ft 150° 150° 7 kt METAR CYUL 252300Z 15007KT 15SM BKN110 BKN250 00/M08 A2985 RMK AC5CI2 SLP113
17:00
V
0 °C 15 mi 10.000 ft 150° 150° 8 kt METAR CYUL 252200Z 15008KT 15SM BKN100 BKN250 00/M09 A2986 RMK AC5CI2 SLP115
16:00
V
1 °C 15 mi 25.000 ft 150° 150° 9 kt METAR CYUL 252100Z 15009KT 15SM SCT140 BKN250 01/M10 A2988 RMK AC4CI2 SLP121
15:00
V
0 °C 15 mi 25.000 ft 140° 140° 9 kt METAR CYUL 252000Z 14009KT 15SM FEW100 BKN250 00/M09 A2989 RMK AC1CI5 AC TR SLP126
14:00
V
0 °C 15 mi 25.000 ft 150° 150° 13 kt METAR CYUL 251900Z 15013KT 15SM FEW180 BKN250 00/M09 A2991 RMK AC2CI4 SLP134
13:00
V
-1 °C 15 mi 25.000 ft 130° 130° 9 kt METAR CYUL 251800Z 13009KT 15SM BKN250 M01/M09 A2994 RMK CI6 SLP142
12:00
V
-1 °C 15 mi - 180° 180° 10 kt METAR CYUL 251700Z 18010KT 15SM FEW180 FEW230 SCT250 M01/M09 A2998 RMK AC1CC1CI3 AC TR SLP156
11:00
V
-3 °C 15 mi - 220° 220° 9 kt METAR CYUL 251600Z 22009KT 15SM FEW180 FEW220 FEW250 M03/M11 A3000 RMK AC1CC1CI1 CC TR SLP165
10:00
V
-5 °C 15 mi - 200° 200° 7 kt METAR CYUL 251500Z 20007KT 15SM FEW180 FEW250 M05/M13 A3003 RMK AC1CI1 SLP173
09:00
V
-7 °C 30 mi - 190° 190° 8 kt METAR CYUL 251400Z 19008KT 30SM FEW180 SCT250 M07/M14 A3004 RMK AC1CI3 AC TR CC ASOCTD SLP178
08:00
V
-9 °C 30 mi - 170° 170° 6 kt METAR CYUL 251300Z 17006KT 30SM FEW250 M09/M15 A3005 RMK CI2 SLP181
07:00
V
-10 °C 30 mi - 150° 150° 6 kt METAR CYUL 251200Z 15006KT 30SM FEW220 FEW250 M10/M15 A3005 RMK CC1CI1 CC TR CI TR SLP180
06:00
V
-11 °C 15 mi - 160° 160° 7 kt METAR CYUL 251100Z 16007KT 15SM FEW220 M11/M16 A3004 RMK CC2 SLP178
05:00
V
-11 °C 15 mi - 170° 170° 5 kt METAR CYUL 251000Z 17005KT 100V170 15SM SKC M11/M16 A3005 RMK SLP181
04:00
V
-12 °C 15 mi - 360° 360° 0 kt METAR CYUL 250900Z 00000KT 15SM SKC M12/M17 A3005 RMK SLP179
03:00
V
-12 °C 15 mi - 260° 260° 5 kt METAR CYUL 250800Z 26005KT 15SM SKC M12/M18 A3005 RMK SLP181
02:00
V
-12 °C 15 mi - 270° 270° 5 kt METAR CYUL 250700Z 27005KT 15SM SKC M12/M18 A3005 RMK SLP181
01:00
V
-12 °C 15 mi - 230° 230° 3 kt METAR CYUL 250600Z 23003KT 15SM SKC M12/M20 A3004 RMK SLP178